• Join FlightAware (Why Join?)
  • Login
  • US Flag 
02:08AM EDT


 

Airport Tracker/Info


-or-


 

Live Flight TrackerFlight Track Log ✈ UAL4295 ✈ 02-May-2013 ✈ KCMH - KIAH

Flight Track Log - Related Links

Times and Time Zones

All times are in EDT time to prevent confusion due to time zone crossing. See the UAL4295 flight status page for this flight to view local times or setup timezone preferences in your user account.

Time Position Orientation Groundspeed Altitude Reporting Facility
EDT Latitude Longitude Course Direction KTS MPH feet Rate Location/Type
07:05PM 40.0014 -82.8011 270° West 184 212 3,600  Level Indianapolis Center
07:06PM 40.0419 -82.7536 42° Northeast 224 258 5,900 2,160 Climbing Indianapolis Center
07:07PM 40.0789 -82.8114 310° West 239 275 8,300 1,980 Climbing Indianapolis Center
07:08PM 40.0000 -83.5951 270° West  Level FlightAware Approximate
07:08PM 40.0864 -82.8967 277° West 235 270 10,100  Level Indianapolis Center
07:09PM 40.0000 -83.7379 270° West  Level FlightAware Approximate
07:09PM 40.0947 -83.0022 276° West 289 333 10,900  Level Indianapolis Center
07:10PM 40.0000 -83.8824 270° West  Level FlightAware Approximate
07:10PM 40.0617 -83.1119 249° West 329 379 12,100  Level Indianapolis Center
07:11PM 40.0067 -83.2417 241° Southwest 347 399 13,600 1,320 Climbing Indianapolis Center
07:12PM 39.9583 -83.3547 241° Southwest 354 407 14,900 1,200 Climbing Indianapolis Center
07:13PM 39.9100 -83.4692 241° Southwest 361 415 16,100 1,020 Climbing Indianapolis Center
07:14PM 39.8603 -83.5819 240° Southwest 371 427 17,100 960 Climbing Indianapolis Center
07:15PM 39.8008 -83.7197 241° Southwest 374 430 18,200 960 Climbing Indianapolis Center
07:16PM 39.7483 -83.8417 241° Southwest 383 441 19,200 960 Climbing Indianapolis Center
07:17PM 39.6944 -83.9644 240° Southwest 387 445 20,300 1,080 Climbing Indianapolis Center
07:18PM 39.6403 -84.0883 240° Southwest 391 450 21,500 1,140 Climbing Indianapolis Center
07:19PM 39.5861 -84.2111 240° Southwest 390 449 22,700 1,080 Climbing Indianapolis Center
07:20PM 39.5322 -84.3336 240° Southwest 389 448 23,800 600 Climbing Indianapolis Center
07:21PM 39.4781 -84.4572 240° Southwest 391 450 24,000 60 Climbing Indianapolis Center
07:22PM 39.4200 -84.5889 240° Southwest 417 480 24,000  Level Indianapolis Center
07:23PM 39.3486 -84.7433 239° Southwest 424 488 24,000  Level Indianapolis Center
07:24PM 39.2889 -84.8778 240° Southwest 429 494 24,000  Level Indianapolis Center
07:25PM 39.2325 -85.0028 240° Southwest 430 495 24,000  Level Indianapolis Center
07:26PM 39.1717 -85.1364 240° Southwest 432 497 24,000  Level Indianapolis Center
07:27PM 39.1111 -85.2714 240° Southwest 435 501 24,000  Level Indianapolis Center
07:28PM 39.0367 -85.4317 239° Southwest 434 499 24,000  Level Indianapolis Center
07:29PM 38.9764 -85.5647 240° Southwest 432 497 24,000  Level Indianapolis Center
07:30PM 38.9164 -85.6964 240° Southwest 429 494 24,000  Level Indianapolis Center
07:31PM 38.8550 -85.8269 239° Southwest 427 491 24,000  Level Indianapolis Center
07:32PM 38.7881 -85.9728 240° Southwest 430 495 24,000  Level Indianapolis Center
07:33PM 38.7258 -86.1058 239° Southwest 433 498 24,000  Level Indianapolis Center
07:35PM 38.6622 -86.2381 238° Southwest 434 499 24,000  Level Indianapolis Center
07:36PM 38.6000 -86.3717 239° Southwest 437 503 24,000  Level Indianapolis Center
07:37PM 38.5275 -86.4964 233° Southwest 440 506 24,000  Level Indianapolis Center
07:38PM 38.4403 -86.6047 224° Southwest 435 501 24,000  Level Indianapolis Center
07:39PM 38.3528 -86.7161 225° Southwest 440 506 24,000  Level Indianapolis Center
07:40PM 38.2644 -86.8281 225° Southwest 441 507 24,000  Level Indianapolis Center
07:41PM 38.1750 -86.9417 225° Southwest 442 509 24,000  Level Indianapolis Center
07:42PM 38.0858 -87.0539 225° Southwest 442 509 24,000  Level Indianapolis Center
07:43PM 37.9978 -87.1639 225° Southwest 439 505 24,000  Level Indianapolis Center
07:44PM 37.9103 -87.2736 225° Southwest 439 505 24,000  Level Indianapolis Center
07:45PM 37.8047 -87.4039 224° Southwest 438 504 24,000  Level Indianapolis Center
07:46PM 37.7158 -87.5144 225° Southwest 444 511 24,000  Level Indianapolis Center
07:47PM 37.6283 -87.6231 225° Southwest 439 505 24,000  Level Indianapolis Center
07:47PM 37.5983 -87.6611 225° Southwest 450 518 24,000  Level Memphis Center
07:48PM 37.5175 -87.7711 227° Southwest 450 518 24,000  Level Memphis Center
07:49PM 37.4278 -87.8786 224° Southwest 445 512 24,000  Level Memphis Center
07:50PM 37.3425 -87.9881 226° Southwest 445 512 24,000  Level Memphis Center
07:51PM 37.2406 -88.1006 221° Southwest 450 518 24,000  Level Memphis Center
07:52PM 37.1569 -88.2097 226° Southwest 450 518 24,000  Level Memphis Center
07:53PM 37.0819 -88.3314 232° Southwest 445 512 24,000  Level Memphis Center
07:54PM 37.0089 -88.4553 234° Southwest 445 512 24,000  Level Memphis Center
07:55PM 36.9358 -88.5817 234° Southwest 445 512 24,000  Level Memphis Center
07:56PM 36.8625 -88.7000 232° Southwest 445 512 24,000  Level Memphis Center
07:57PM 36.7889 -88.8233 233° Southwest 445 512 24,000  Level Memphis Center
07:58PM 36.7133 -88.9436 232° Southwest 445 512 24,000  Level Memphis Center
07:59PM 36.6439 -89.0664 235° Southwest 445 512 24,000  Level Memphis Center
08:00PM 36.5700 -89.1867 233° Southwest 445 512 24,000  Level Memphis Center
08:01PM 36.5042 -89.2986 234° Southwest 445 512 24,000  Level Memphis Center
08:02PM 36.4281 -89.4208 232° Southwest 450 518 24,000  Level Memphis Center
08:03PM 36.3519 -89.5428 232° Southwest 458 527 24,000  Level Memphis Center
08:04PM 36.2797 -89.6619 233° Southwest 447 514 24,000  Level Memphis Center
08:05PM 36.2031 -89.7833 232° Southwest 447 514 24,000  Level Memphis Center
08:06PM 36.1306 -89.9022 233° Southwest 447 514 24,000  Level Memphis Center
08:07PM 36.0539 -90.0233 232° Southwest 447 514 24,000  Level Memphis Center
08:08PM 35.9811 -90.1442 233° Southwest 442 509 24,000  Level Memphis Center
08:09PM 35.9042 -90.2672 232° Southwest 447 514 24,000  Level Memphis Center
08:10PM 35.8269 -90.3853 231° Southwest 447 514 24,000  Level Memphis Center
08:11PM 35.7519 -90.5053 232° Southwest 447 514 24,000  Level Memphis Center
08:12PM 35.6767 -90.6331 234° Southwest 432 497 24,000  Level Memphis Center
08:13PM 35.6097 -90.7375 232° Southwest 432 497 24,000  Level Memphis Center
08:14PM 35.5361 -90.8572 233° Southwest 432 497 24,000  Level Memphis Center
08:15PM 35.4647 -90.9714 233° Southwest 437 503 24,000  Level Memphis Center
08:16PM 35.3911 -91.0856 232° Southwest 437 503 24,000  Level Memphis Center
08:17PM 35.3133 -91.1994 230° Southwest 437 503 24,000  Level Memphis Center
08:18PM 35.2417 -91.3131 232° Southwest 437 503 24,000  Level Memphis Center
08:19PM 35.1675 -91.4317 233° Southwest 442 509 24,000  Level Memphis Center
08:20PM 35.0914 -91.5447 231° Southwest 442 509 24,000  Level Memphis Center
08:21PM 35.0194 -91.6578 232° Southwest 442 509 24,000  Level Memphis Center
08:22PM 34.9103 -91.7244 207° Southwest 430 495 24,000  Level Memphis Center
08:23PM 34.7931 -91.7631 195° South 422 486 24,000  Level Memphis Center
08:24PM 34.6756 -91.8042 196° South 434 499 24,000  Level Memphis Center
08:25PM 34.5542 -91.8425 195° South 446 513 24,000  Level Memphis Center
08:26PM 34.4367 -91.8858 197° South 446 513 24,000  Level Memphis Center
08:27PM 34.3214 -91.9289 197° South 446 513 24,000  Level Memphis Center
08:28PM 34.2908 -92.0467 253° West 361 415 24,000  Level Memphis Center
08:29PM 34.2911 -92.1747 270° West 337 388 24,000  Level Memphis Center
08:30PM 34.2747 -92.2875 260° West 337 388 24,000  Level Memphis Center
08:31PM 34.1800 -92.3331 202° Southwest 320 368 24,000  Level Memphis Center
08:32PM 34.0650 -92.3506 187° South 356 410 24,000  Level Memphis Center
08:34PM 33.8472 -92.3844 187° South 416 479 24,000  Level Fort Worth Center
08:35PM 33.7206 -92.4017 186° South 446 513 24,000  Level Fort Worth Center
08:36PM 33.5964 -92.4239 188° South 457 526 24,000  Level Fort Worth Center
08:37PM 33.4697 -92.4433 187° South 463 533 24,000  Level Fort Worth Center
08:38PM 33.3453 -92.4603 186° South 463 533 24,000  Level Fort Worth Center
08:39PM 33.2189 -92.4822 188° South 463 533 24,000  Level Fort Worth Center
08:40PM 33.0797 -92.5025 187° South 463 533 24,000  Level Fort Worth Center
08:41PM 32.9556 -92.5242 188° South 463 533 24,000  Level Fort Worth Center
08:42PM 32.8289 -92.5433 187° South 463 533 24,000  Level Fort Worth Center
08:44PM 32.5931 -92.4975 171° South 448 516 24,000 -60 Level Houston Center
08:45PM 32.4689 -92.4989 181° South 447 514 23,900  Descending Houston Center
08:46PM 32.3503 -92.5400 196° South 440 506 24,000  Climbing Houston Center
08:47PM 32.2331 -92.5831 197° South 443 510 24,000  Level Houston Center
08:48PM 32.1144 -92.6250 197° South 445 512 24,000  Level Houston Center
08:49PM 31.9978 -92.6692 198° South 441 507 24,000  Level Houston Center
08:50PM 31.8978 -92.7519 215° Southwest 442 509 24,000  Level Houston Center
08:51PM 31.7853 -92.8617 220° Southwest 439 505 24,000  Level Houston Center
08:52PM 31.6897 -92.9525 219° Southwest 440 506 24,000  Level Houston Center
08:53PM 31.5956 -93.0433 219° Southwest 439 505 24,000  Level Houston Center
08:54PM 31.5014 -93.1328 219° Southwest 437 503 24,000  Level Houston Center
08:55PM 31.4069 -93.2225 219° Southwest 438 504 24,000  Level Houston Center
08:56PM 31.2989 -93.3256 219° Southwest 436 502 24,000  Level Houston Center
08:57PM 31.2011 -93.4192 219° Southwest 437 503 24,000  Level Houston Center
08:59PM 31.1069 -93.5086 219° Southwest 438 504 24,000  Level Houston Center
09:00PM 31.0169 -93.5933 219° Southwest 422 486 24,000  Level Houston Center
09:01PM 30.9317 -93.6756 220° Southwest 404 465 24,000  Level Houston Center
09:02PM 30.8464 -93.7556 219° Southwest 397 457 24,000  Level Houston Center
09:03PM 30.7611 -93.8375 220° Southwest 399 459 24,000 -360 Level Houston Center
09:04PM 30.6744 -93.9181 219° Southwest 402 463 23,300 -1,500 Descending Houston Center
09:04PM 30.5942 -93.9942 219° Southwest 392 451 21,300 -2,460 Descending Houston Center
09:05PM 30.5744 -94.0114 217° Southwest 390 449 20,800 -2,040 Descending Houston Center
09:06PM 30.5019 -94.0794 219° Southwest 380 437 19,000 -2,100 Descending Houston Center
09:07PM 30.4153 -94.1589 218° Southwest 373 429 16,900 -2,040 Descending Houston Center
09:08PM 30.3342 -94.2358 219° Southwest 362 417 14,600 -2,100 Descending Houston Center
09:09PM 30.2578 -94.3058 218° Southwest 357 411 12,600 -1,320 Descending Houston Center
09:10PM 30.1844 -94.3764 220° Southwest 344 396 11,900 -600 Descending Houston Center
09:11PM 30.1589 -94.4761 254° West 305 351 11,400 -1,200 Descending Houston Center
09:12PM 30.1411 -94.5750 258° West 281 323 9,600 -1,500 Descending Houston Center
09:13PM 30.1228 -94.6669 257° West 275 316 8,300 -1,260 Descending Houston Center
09:14PM 30.1106 -94.7361 258° West 244 281 7,200 -1,140 Descending Houston Center
09:15PM 30.1139 -94.8153 273° West 222 255 6,000 -960 Descending Houston Center
09:16PM 30.1225 -94.8819 279° West 234 269 5,200 -960 Descending Houston Center
09:17PM 30.0597 -94.9067 199° South 245 282 4,100 -840 Descending Houston Center
09:18PM 30.0058 -94.9378 207° Southwest 208 239 3,500 -660 Descending Houston Center
09:19PM 30.0072 -94.9978 272° West 192 221 2,900 -600 Descending Houston Center
09:19PM 30.0081 -95.0011 286° West 204 235 2,800 -540 Descending Houston Center
09:20PM 30.0061 -95.0533 268° West 171 197 2,400 -540 Descending Houston Center
09:20PM 30.0078 -95.0561 305° West 188 216 2,300 -420 Descending Houston Center
09:21PM 30.0072 -95.1089 269° West 173 199 2,000 -420 Descending Houston Center
09:21PM 30.0078 -95.1231 273° West 179 206 1,900  Descending Houston Center
09:22PM 30.0058 -95.1622 267° West 174 200 2,000  Climbing Houston Center
09:22PM 30.0083 -95.1761 282° West 173 199 1,900 -420 Descending Houston Center